Time;durP1;ratioP1;P1;durP2;ratioP2;P2;SDS_P1;SDS_P2;PMS_P1;PMS_P2;Temp;Humidity;BMP_temperature;BMP_pressure;BME280_temperature;BME280_humidity;BME280_pressure;Samples;Min_cycle;Max_cycle;Signal;HPM_P1;HPM_P2
2021/06/07 00:00:54;;;;;;;7.90;6.72;;;15.10;75.60;;;;;;5025141;28;20136;-85
2021/06/07 00:03:22;;;;;;;7.38;6.50;;;15.10;75.60;;;;;;5024924;28;20037;-86
2021/06/07 00:05:48;;;;;;;6.97;6.28;;;15.10;75.70;;;;;;5024071;28;20044;-86
2021/06/07 00:08:21;;;;;;;7.57;6.70;;;15.10;75.70;;;;;;5027298;28;20119;-86
2021/06/07 00:10:49;;;;;;;8.98;8.10;;;15.10;75.70;;;;;;5025762;28;20320;-86
2021/06/07 00:13:15;;;;;;;6.97;6.10;;;15.00;75.60;;;;;;5025959;28;20072;-86
2021/06/07 00:15:42;;;;;;;8.00;6.78;;;15.10;75.80;;;;;;5009325;28;20405;-86
2021/06/07 00:18:08;;;;;;;8.02;6.95;;;15.00;75.70;;;;;;5009276;28;20049;-87
2021/06/07 00:20:39;;;;;;;8.60;7.15;;;15.00;75.70;;;;;;5008273;28;20114;-86
2021/06/07 00:23:10;;;;;;;8.07;7.20;;;15.00;75.70;;;;;;5009489;28;20140;-86
2021/06/07 00:25:37;;;;;;;7.55;6.78;;;15.00;75.70;;;;;;5009483;28;20436;-85
2021/06/07 00:28:06;;;;;;;6.90;6.20;;;15.00;75.70;;;;;;5025928;28;20037;-85
2021/06/07 00:30:41;;;;;;;8.52;7.72;;;15.00;75.70;;;;;;5027389;28;20041;-84
2021/06/07 00:33:07;;;;;;;7.90;7.03;;;14.90;75.60;;;;;;5024515;28;20446;-84
2021/06/07 00:35:33;;;;;;;7.65;6.15;;;14.90;75.60;;;;;;5024454;28;20480;-86
2021/06/07 00:37:59;;;;;;;8.07;7.20;;;14.90;75.50;;;;;;5041160;28;20041;-87
2021/06/07 00:40:26;;;;;;;7.93;6.60;;;14.90;75.60;;;;;;5024735;28;20052;-87
2021/06/07 00:42:54;;;;;;;7.35;6.65;;;14.90;75.60;;;;;;5009231;28;20075;-84
2021/06/07 00:45:23;;;;;;;7.72;6.45;;;14.90;75.70;;;;;;5025043;28;20496;-85
2021/06/07 00:47:50;;;;;;;9.68;6.28;;;14.90;75.80;;;;;;5040991;28;20056;-85
2021/06/07 00:50:28;;;;;;;7.85;7.15;;;14.90;75.80;;;;;;5025038;28;20037;-85
2021/06/07 00:53:03;;;;;;;9.02;6.93;;;14.90;75.90;;;;;;5025107;28;20071;-85
2021/06/07 00:55:39;;;;;;;9.68;6.95;;;14.90;75.90;;;;;;5042069;28;20064;-83
2021/06/07 00:58:06;;;;;;;6.97;6.28;;;14.90;76.00;;;;;;5008146;28;20073;-84
2021/06/07 01:00:32;;;;;;;7.88;6.38;;;14.90;76.00;;;;;;5026446;28;20037;-84
2021/06/07 01:03:00;;;;;;;8.75;7.10;;;14.90;75.90;;;;;;5023776;28;20045;-85
2021/06/07 01:05:26;;;;;;;6.53;5.90;;;14.90;76.00;;;;;;5024171;28;20127;-85
2021/06/07 01:07:52;;;;;;;7.93;6.45;;;14.80;76.00;;;;;;5039848;28;20116;-86
2021/06/07 01:10:18;;;;;;;8.90;6.50;;;14.80;76.10;;;;;;5008235;28;20072;-88
2021/06/07 01:12:44;;;;;;;6.97;6.22;;;14.80;76.10;;;;;;5040561;28;20041;-87
2021/06/07 01:15:10;;;;;;;6.93;6.20;;;14.80;76.10;;;;;;5024295;28;20051;-85
2021/06/07 01:17:36;;;;;;;6.75;6.15;;;14.80;76.10;;;;;;5023559;28;20041;-88
2021/06/07 01:20:04;;;;;;;7.60;6.25;;;14.80;76.10;;;;;;5023968;28;20175;-86
2021/06/07 01:22:30;;;;;;;7.43;5.97;;;14.80;76.20;;;;;;5023470;28;20056;-85
2021/06/07 01:24:56;;;;;;;8.10;6.78;;;14.80;76.30;;;;;;5039929;28;20048;-85
2021/06/07 01:27:21;;;;;;;7.90;7.07;;;14.80;76.20;;;;;;5024167;28;20033;-84
2021/06/07 01:29:47;;;;;;;6.70;6.10;;;14.80;76.20;;;;;;5023516;28;20076;-85
2021/06/07 01:32:13;;;;;;;8.63;6.60;;;14.70;76.10;;;;;;5022554;28;20102;-86
2021/06/07 01:34:39;;;;;;;8.45;6.10;;;14.70;76.20;;;;;;5020628;28;20041;-88
2021/06/07 01:37:05;;;;;;;7.90;5.80;;;14.70;76.20;;;;;;5020721;28;20052;-85
2021/06/07 01:39:31;;;;;;;8.70;6.05;;;14.70;76.30;;;;;;5003810;28;20095;-83
2021/06/07 01:41:57;;;;;;;7.75;6.95;;;14.70;76.30;;;;;;5036427;28;20120;-83
2021/06/07 01:44:23;;;;;;;6.50;5.90;;;14.70;76.40;;;;;;5020549;28;20068;-84
2021/06/07 01:46:49;;;;;;;6.97;6.22;;;14.70;76.30;;;;;;5036933;28;20453;-85
2021/06/07 01:49:15;;;;;;;8.93;5.45;;;14.70;76.40;;;;;;5020770;28;20059;-85
2021/06/07 01:51:43;;;;;;;6.85;5.80;;;14.70;76.50;;;;;;5005337;28;20041;-85
2021/06/07 01:54:09;;;;;;;9.00;6.95;;;14.70;76.50;;;;;;5004839;28;20048;-83
2021/06/07 01:56:36;;;;;;;7.53;6.72;;;14.70;76.50;;;;;;5037705;28;20075;-84
2021/06/07 01:59:02;;;;;;;6.53;5.93;;;14.70;76.50;;;;;;5037281;28;20040;-85
2021/06/07 02:01:28;;;;;;;7.22;5.85;;;14.70;76.60;;;;;;5003351;28;20037;-87
2021/06/07 02:03:53;;;;;;;6.75;6.05;;;14.70;76.60;;;;;;5020646;28;20382;-86
2021/06/07 02:06:21;;;;;;;7.78;6.05;;;14.70;76.60;;;;;;5005572;28;20107;-86
2021/06/07 02:08:47;;;;;;;7.55;6.20;;;14.60;76.60;;;;;;5021484;28;20044;-86
2021/06/07 02:11:14;;;;;;;8.23;6.45;;;14.60;76.70;;;;;;5037792;28;20121;-85
2021/06/07 02:13:41;;;;;;;6.22;5.63;;;14.60;76.80;;;;;;5021333;28;20136;-85
2021/06/07 02:16:12;;;;;;;7.55;5.57;;;14.60;76.80;;;;;;5021072;28;20490;-85
2021/06/07 02:18:38;;;;;;;7.63;6.82;;;14.60;76.90;;;;;;5006324;28;20044;-85
2021/06/07 02:21:08;;;;;;;8.02;6.20;;;14.60;76.90;;;;;;5020476;28;20489;-85
2021/06/07 02:23:34;;;;;;;7.53;6.32;;;14.60;77.00;;;;;;5020946;28;20072;-85
2021/06/07 02:26:00;;;;;;;7.85;5.90;;;14.50;77.00;;;;;;5021126;28;20045;-83
2021/06/07 02:28:25;;;;;;;7.00;6.30;;;14.50;77.00;;;;;;5021276;28;20374;-83
2021/06/07 02:30:51;;;;;;;7.32;6.03;;;14.40;77.00;;;;;;4988770;28;20098;-86
2021/06/07 02:33:17;;;;;;;7.68;6.22;;;14.50;77.10;;;;;;5005587;28;20049;-86
2021/06/07 02:35:44;;;;;;;7.53;6.30;;;14.40;77.10;;;;;;5006210;28;20088;-85
2021/06/07 02:38:10;;;;;;;8.82;7.03;;;14.40;77.10;;;;;;5006036;28;20098;-85
2021/06/07 02:40:38;;;;;;;7.03;6.28;;;14.40;77.20;;;;;;5006561;28;20128;-85
2021/06/07 02:43:05;;;;;;;7.80;6.03;;;14.30;77.10;;;;;;5005623;28;20068;-83
2021/06/07 02:45:30;;;;;;;7.88;6.28;;;14.30;77.20;;;;;;5006228;28;20048;-85
2021/06/07 02:48:01;;;;;;;6.47;5.82;;;14.30;77.20;;;;;;5022043;28;20130;-85
2021/06/07 02:50:35;;;;;;;7.75;6.20;;;14.30;77.30;;;;;;4989854;28;20489;-85
2021/06/07 02:53:04;;;;;;;8.27;6.40;;;14.20;77.20;;;;;;5022629;28;20041;-85
2021/06/07 02:55:35;;;;;;;7.43;6.32;;;14.20;77.30;;;;;;4990718;28;20108;-84
2021/06/07 02:58:02;;;;;;;6.95;6.25;;;14.20;77.30;;;;;;5039018;28;20449;-85
2021/06/07 03:00:49;;;;;;;8.32;6.50;;;14.10;77.30;;;;;;5022869;28;20474;-85
2021/06/07 03:03:16;;;;;;;7.43;6.43;;;14.10;77.30;;;;;;5024118;28;20041;-84
2021/06/07 03:05:42;;;;;;;6.72;6.13;;;14.10;77.30;;;;;;5022659;28;20375;-84
2021/06/07 03:08:09;;;;;;;8.05;6.90;;;14.10;77.50;;;;;;5005891;28;20108;-86
2021/06/07 03:10:37;;;;;;;7.55;6.65;;;14.00;77.50;;;;;;5005988;28;20367;-85
2021/06/07 03:13:04;;;;;;;7.72;7.00;;;14.00;77.50;;;;;;5006029;28;20067;-84
2021/06/07 03:15:31;;;;;;;7.30;6.60;;;14.00;77.60;;;;;;5031623;28;20045;-84
2021/06/07 03:17:57;;;;;;;9.20;6.68;;;14.00;77.60;;;;;;5021933;28;20049;-86
2021/06/07 03:20:29;;;;;;;8.88;6.80;;;14.00;77.60;;;;;;4988466;28;20041;-85
2021/06/07 03:22:59;;;;;;;9.30;7.32;;;14.00;77.60;;;;;;5006797;28;20053;-86
2021/06/07 03:25:33;;;;;;;9.50;7.28;;;14.00;77.60;;;;;;5023246;28;20045;-83
2021/06/07 03:28:00;;;;;;;8.65;7.05;;;13.90;77.60;;;;;;5024166;28;20048;-85
2021/06/07 03:30:29;;;;;;;9.05;7.15;;;13.90;77.60;;;;;;5006074;28;20048;-86
2021/06/07 03:32:56;;;;;;;7.30;6.60;;;13.80;77.60;;;;;;5006556;28;20033;-90
2021/06/07 03:35:22;;;;;;;8.25;7.45;;;13.80;77.60;;;;;;5021522;28;20061;-84
2021/06/07 03:37:48;;;;;;;9.30;7.57;;;13.90;77.70;;;;;;5021795;28;20041;-84
2021/06/07 03:40:26;;;;;;;8.55;7.28;;;13.80;77.70;;;;;;5007321;28;20037;-82
2021/06/07 03:42:53;;;;;;;8.85;7.38;;;13.80;77.80;;;;;;5025270;28;20041;-82
2021/06/07 03:45:30;;;;;;;9.88;7.70;;;13.80;77.80;;;;;;5028253;28;20481;-83
2021/06/07 03:47:58;;;;;;;7.82;6.95;;;13.70;77.90;;;;;;5010047;28;20049;-87
2021/06/07 03:50:28;;;;;;;8.93;7.28;;;13.70;77.90;;;;;;5041266;28;20454;-83
2021/06/07 03:52:54;;;;;;;8.65;7.20;;;13.70;78.00;;;;;;5041058;28;20049;-84
2021/06/07 03:55:26;;;;;;;8.55;7.65;;;13.70;78.00;;;;;;5024950;28;20124;-83
2021/06/07 03:57:56;;;;;;;8.32;7.45;;;13.70;78.10;;;;;;5027103;28;20123;-86
2021/06/07 04:00:27;;;;;;;8.27;7.47;;;13.70;78.10;;;;;;5008177;28;20037;-82
2021/06/07 04:02:59;;;;;;;8.93;7.22;;;13.70;78.10;;;;;;4991226;28;20048;-86
2021/06/07 04:05:27;;;;;;;8.40;7.50;;;13.70;78.10;;;;;;4992960;28;20391;-83
2021/06/07 04:07:58;;;;;;;9.98;7.63;;;13.60;78.10;;;;;;5024759;28;20048;-80
2021/06/07 04:10:30;;;;;;;7.78;7.03;;;13.60;78.20;;;;;;5025364;28;20036;-83
2021/06/07 04:12:56;;;;;;;8.10;7.30;;;13.60;78.20;;;;;;4992350;28;20128;-84
2021/06/07 04:15:23;;;;;;;8.60;7.68;;;13.60;78.30;;;;;;4991966;28;20059;-83
2021/06/07 04:17:50;;;;;;;8.48;7.68;;;13.60;78.40;;;;;;5008671;28;20409;-84
2021/06/07 04:20:23;;;;;;;8.30;7.28;;;13.60;78.40;;;;;;5025657;28;20045;-84
2021/06/07 04:22:49;;;;;;;11.52;7.93;;;13.60;78.40;;;;;;5004706;28;20118;-82
2021/06/07 04:25:16;;;;;;;8.43;7.53;;;13.60;78.40;;;;;;5037329;28;20045;-84
2021/06/07 04:27:48;;;;;;;8.93;7.68;;;13.60;78.50;;;;;;5021791;28;20042;-84
2021/06/07 04:30:16;;;;;;;10.93;8.63;;;13.50;78.50;;;;;;5020631;28;20044;-84
2021/06/07 04:32:42;;;;;;;9.13;8.27;;;13.60;78.60;;;;;;5021246;28;20049;-81
2021/06/07 04:35:09;;;;;;;8.25;7.38;;;13.60;78.60;;;;;;5020300;28;20057;-84
2021/06/07 04:37:56;;;;;;;8.77;7.78;;;13.50;78.60;;;;;;5037639;28;20049;-84
2021/06/07 04:40:43;;;;;;;8.30;7.50;;;13.50;78.60;;;;;;5037076;28;20065;-83
2021/06/07 04:43:12;;;;;;;7.95;7.25;;;13.60;78.70;;;;;;5023860;28;20111;-85
2021/06/07 04:45:39;;;;;;;8.80;7.85;;;13.50;78.60;;;;;;5037744;28;20053;-85
2021/06/07 04:48:09;;;;;;;7.65;6.90;;;13.50;78.70;;;;;;5002222;28;20054;-87
2021/06/07 04:50:38;;;;;;;8.82;7.70;;;13.60;78.70;;;;;;5018198;28;20049;-84
2021/06/07 04:53:05;;;;;;;8.38;7.20;;;13.50;78.60;;;;;;5032956;28;20046;-90
2021/06/07 04:55:37;;;;;;;8.77;7.88;;;13.50;78.80;;;;;;5002882;28;20409;-84
2021/06/07 04:58:05;;;;;;;8.80;6.75;;;13.50;78.80;;;;;;5002581;28;20103;-86
2021/06/07 05:00:34;;;;;;;10.77;7.72;;;13.60;78.80;;;;;;5030623;28;20088;-83
2021/06/07 05:03:00;;;;;;;10.05;7.75;;;13.50;78.70;;;;;;5026015;28;20136;-84
2021/06/07 05:05:26;;;;;;;7.90;7.10;;;13.60;78.80;;;;;;5028518;28;20629;-84
2021/06/07 05:07:51;;;;;;;8.35;7.40;;;13.60;78.80;;;;;;5017752;28;21201;-85
2021/06/07 05:10:17;;;;;;;8.85;7.72;;;13.60;78.80;;;;;;5045696;28;20044;-85
2021/06/07 05:12:46;;;;;;;8.50;7.38;;;13.60;78.80;;;;;;5014505;28;20049;-85
2021/06/07 05:15:14;;;;;;;8.05;6.93;;;13.60;78.80;;;;;;5013696;28;20108;-84
2021/06/07 05:17:42;;;;;;;11.57;7.03;;;13.60;78.90;;;;;;5025870;28;20042;-82
2021/06/07 05:20:18;;;;;;;7.63;6.75;;;13.60;79.00;;;;;;5026143;28;20096;-84
2021/06/07 05:22:43;;;;;;;7.55;6.53;;;13.60;79.00;;;;;;5029922;28;20049;-84
2021/06/07 05:25:10;;;;;;;7.25;6.53;;;13.60;79.00;;;;;;5010987;28;20068;-89
2021/06/07 05:27:36;;;;;;;7.22;6.35;;;13.70;79.10;;;;;;5012072;28;20116;-84
2021/06/07 05:30:02;;;;;;;7.20;6.22;;;13.70;79.20;;;;;;5014027;28;20121;-83
2021/06/07 05:32:28;;;;;;;7.72;6.35;;;13.70;79.10;;;;;;4997837;28;20692;-83
2021/06/07 05:34:54;;;;;;;7.70;6.90;;;13.70;79.20;;;;;;4998122;28;20053;-85
2021/06/07 05:37:20;;;;;;;8.70;6.90;;;13.70;79.20;;;;;;5010086;28;20053;-82
2021/06/07 05:39:48;;;;;;;9.48;6.28;;;13.60;79.30;;;;;;5012270;28;20121;-85
2021/06/07 05:42:13;;;;;;;7.85;6.78;;;13.70;79.40;;;;;;5014264;28;20406;-82
2021/06/07 05:44:39;;;;;;;10.75;6.55;;;13.70;79.50;;;;;;4998558;28;20056;-84
2021/06/07 05:47:07;;;;;;;6.85;5.72;;;13.80;80.70;;;;;;5011965;28;20065;-83
2021/06/07 05:49:38;;;;;;;6.35;5.72;;;13.90;80.90;;;;;;5013165;28;20483;-82
2021/06/07 05:52:07;;;;;;;10.15;6.53;;;14.10;81.00;;;;;;5023729;28;20088;-82
2021/06/07 05:54:33;;;;;;;9.38;5.50;;;14.10;80.80;;;;;;5022088;28;20382;-81
2021/06/07 05:56:59;;;;;;;5.75;5.10;;;14.30;81.30;;;;;;5017292;28;20038;-80
2021/06/07 05:59:25;;;;;;;7.10;4.70;;;14.40;81.70;;;;;;5017310;28;20064;-80
2021/06/07 06:01:51;;;;;;;7.13;4.95;;;14.50;81.90;;;;;;5025360;28;20079;-81
2021/06/07 06:04:17;;;;;;;7.97;5.70;;;14.60;81.80;;;;;;5030298;28;20065;-83
2021/06/07 06:06:43;;;;;;;8.35;5.40;;;14.70;82.30;;;;;;5007296;28;20064;-87
2021/06/07 06:09:09;;;;;;;8.88;5.28;;;14.80;80.80;;;;;;5023970;28;20049;-87
2021/06/07 06:11:41;;;;;;;8.27;4.97;;;14.70;80.30;;;;;;5016750;28;20060;-86
2021/06/07 06:14:07;;;;;;;6.32;4.82;;;14.70;80.00;;;;;;5005374;28;20581;-78
2021/06/07 06:16:33;;;;;;;10.93;5.43;;;14.70;79.70;;;;;;5035244;28;20260;-92
2021/06/07 06:18:59;;;;;;;9.15;5.28;;;14.70;79.80;;;;;;5038441;28;20081;-93
2021/06/07 06:21:28;;;;;;;5.97;4.78;;;14.70;79.60;;;;;;5036646;28;20175;-92
2021/06/07 06:23:54;;;;;;;6.57;4.35;;;14.60;79.50;;;;;;5024595;28;20033;-93
2021/06/07 06:26:20;;;;;;;9.82;4.85;;;14.60;79.40;;;;;;5007614;28;20110;-91
2021/06/07 06:28:46;;;;;;;7.60;4.72;;;14.60;79.30;;;;;;5041554;28;20481;-91
2021/06/07 06:31:15;;;;;;;6.18;4.45;;;14.60;79.20;;;;;;5026125;28;20083;-90
2021/06/07 06:33:44;;;;;;;5.13;3.80;;;14.60;79.10;;;;;;5011863;28;20057;-92
2021/06/07 06:36:24;;;;;;;5.45;4.40;;;14.60;79.10;;;;;;5011483;28;20051;-88
2021/06/07 06:39:01;;;;;;;5.85;3.85;;;14.60;79.00;;;;;;5033499;28;20097;-92
2021/06/07 06:41:30;;;;;;;6.72;4.32;;;14.60;79.00;;;;;;5028390;28;20041;-92
2021/06/07 06:43:57;;;;;;;6.60;4.50;;;14.60;78.90;;;;;;5029366;28;20045;-89
2021/06/07 06:46:23;;;;;;;4.35;3.72;;;14.60;78.80;;;;;;5028825;28;20048;-92
2021/06/07 06:49:12;;;;;;;5.60;4.00;;;14.60;78.70;;;;;;5045286;28;20097;-89
2021/06/07 06:51:43;;;;;;;3.45;3.15;;;14.60;78.60;;;;;;5030833;28;20068;-92
2021/06/07 06:54:09;;;;;;;4.40;3.58;;;14.60;79.20;;;;;;5029521;28;20045;-93
2021/06/07 06:56:36;;;;;;;4.35;3.13;;;14.60;78.20;;;;;;5045888;28;20048;-92
2021/06/07 06:59:03;;;;;;;5.43;3.63;;;14.60;78.10;;;;;;5045591;28;20063;-91
2021/06/07 07:01:31;;;;;;;6.50;3.40;;;14.70;78.10;;;;;;5044044;28;20040;-90
2021/06/07 07:04:11;;;;;;;4.88;3.40;;;14.70;78.00;;;;;;5028641;28;20466;-91
2021/06/07 07:06:40;;;;;;;4.35;3.42;;;14.70;77.80;;;;;;5023123;28;20118;-90
2021/06/07 07:09:11;;;;;;;4.53;3.15;;;14.70;77.80;;;;;;5039277;28;20075;-91
2021/06/07 07:11:40;;;;;;;3.20;2.85;;;14.70;77.70;;;;;;5021118;28;20041;-93
2021/06/07 07:14:09;;;;;;;4.25;2.90;;;14.70;77.10;;;;;;5023767;28;20041;-91
2021/06/07 07:16:47;;;;;;;4.15;2.55;;;14.70;76.80;;;;;;5028854;28;20063;-91
2021/06/07 07:19:21;;;;;;;5.28;3.00;;;14.80;76.40;;;;;;5028778;28;20125;-90
2021/06/07 07:21:49;;;;;;;4.93;2.95;;;14.80;76.30;;;;;;5043804;28;20063;-93
2021/06/07 07:24:19;;;;;;;3.70;2.83;;;14.80;76.20;;;;;;5016360;28;20477;-91
2021/06/07 07:26:51;;;;;;;5.43;3.25;;;14.90;76.10;;;;;;5013099;28;20068;-90
2021/06/07 07:29:32;;;;;;;5.30;2.70;;;14.90;75.70;;;;;;5015906;28;20056;-92
2021/06/07 07:32:00;;;;;;;5.45;2.80;;;14.90;75.90;;;;;;5014855;28;20429;-94
2021/06/07 07:34:30;;;;;;;4.78;2.55;;;15.00;74.90;;;;;;5029564;28;20041;-91
2021/06/07 07:36:59;;;;;;;3.90;2.85;;;15.00;74.70;;;;;;5046098;28;20075;-90
2021/06/07 07:39:25;;;;;;;5.72;2.50;;;15.00;74.20;;;;;;5029864;28;20091;-90
2021/06/07 07:42:04;;;;;;;;;;;;;;;;;;;;;
2021/06/07 07:44:33;;;;;;;4.53;3.10;;;15.10;73.50;;;;;;5064179;28;20144;-90
2021/06/07 07:47:02;;;;;;;5.15;3.17;;;15.20;73.30;;;;;;5033497;28;20049;-92
2021/06/07 07:49:59;;;;;;;5.35;3.65;;;15.20;73.00;;;;;;5047639;28;20053;-90
2021/06/07 07:52:26;;;;;;;6.45;4.72;;;15.20;73.00;;;;;;5044213;28;20127;-88
2021/06/07 07:54:52;;;;;;;6.10;4.32;;;15.30;72.90;;;;;;5023269;28;20108;-89
2021/06/07 07:57:21;;;;;;;6.90;4.45;;;15.30;72.90;;;;;;5025018;28;20413;-90
2021/06/07 08:00:00;;;;;;;5.65;5.05;;;15.40;73.10;;;;;;5013255;28;20052;-93
2021/06/07 08:02:29;;;;;;;8.90;5.28;;;15.50;73.30;;;;;;5007995;28;20053;-92
2021/06/07 08:04:55;;;;;;;6.45;5.00;;;15.50;73.30;;;;;;5057736;28;20045;-88
2021/06/07 08:07:21;;;;;;;7.15;5.25;;;15.60;73.50;;;;;;5040291;28;20044;-87
2021/06/07 08:09:49;;;;;;;6.60;5.88;;;15.60;73.70;;;;;;5039529;28;20106;-92
2021/06/07 08:12:17;;;;;;;6.95;6.00;;;15.70;73.70;;;;;;5008989;28;20140;-93
2021/06/07 08:14:42;;;;;;;8.63;6.68;;;15.80;73.80;;;;;;5023480;28;20061;-90
2021/06/07 08:17:16;;;;;;;8.07;6.75;;;15.80;73.80;;;;;;5040595;28;20045;-94
2021/06/07 08:19:50;;;;;;;7.35;6.53;;;15.90;73.90;;;;;;5023899;28;20045;-89
2021/06/07 08:22:22;;;;;;;8.63;7.55;;;15.90;73.90;;;;;;5022877;28;20049;-94
2021/06/07 08:25:08;;;;;;;10.18;6.60;;;16.00;74.00;;;;;;5023620;28;20442;-88
2021/06/07 08:27:34;;;;;;;8.45;6.55;;;16.00;74.00;;;;;;5038033;28;20048;-92
2021/06/07 08:30:00;;;;;;;13.82;7.22;;;16.10;74.00;;;;;;5023957;28;20048;-94
2021/06/07 08:32:35;;;;;;;7.80;6.63;;;16.20;74.20;;;;;;5023322;28;20394;-92
2021/06/07 08:35:04;;;;;;;7.18;6.47;;;16.20;74.20;;;;;;5022278;28;20144;-90
2021/06/07 08:37:42;;;;;;;7.80;6.75;;;16.30;74.10;;;;;;5023312;28;20504;-90
2021/06/07 08:40:19;;;;;;;7.88;6.38;;;16.40;74.00;;;;;;5022442;28;20048;-93
2021/06/07 08:42:48;;;;;;;7.88;6.25;;;16.40;73.90;;;;;;5039377;28;20040;-89
2021/06/07 08:45:21;;;;;;;7.20;6.22;;;16.50;73.90;;;;;;5024357;28;20037;-92
2021/06/07 08:47:50;;;;;;;8.25;6.05;;;16.60;73.90;;;;;;5038764;28;20478;-88
2021/06/07 08:50:19;;;;;;;6.70;5.75;;;16.70;73.80;;;;;;5039916;28;20041;-94
2021/06/07 08:53:08;;;;;;;6.75;5.90;;;16.70;73.50;;;;;;5022857;28;20108;-92
2021/06/07 08:55:57;;;;;;;7.30;6.00;;;16.80;73.30;;;;;;5026239;28;20080;-90
2021/06/07 08:58:27;;;;;;;6.35;5.75;;;16.90;73.00;;;;;;5008534;28;20049;-90
2021/06/07 09:00:56;;;;;;;7.35;5.80;;;17.00;72.90;;;;;;5021930;28;20060;-91
2021/06/07 09:03:30;;;;;;;6.40;5.80;;;17.10;73.00;;;;;;5044854;28;20052;-91
2021/06/07 09:05:57;;;;;;;7.75;5.53;;;17.20;72.80;;;;;;5043492;28;20037;-91
2021/06/07 09:08:49;;;;;;;7.65;5.38;;;17.30;72.70;;;;;;5028355;28;20048;-91
2021/06/07 09:11:18;;;;;;;6.95;5.22;;;17.40;73.00;;;;;;5025329;28;20067;-90
2021/06/07 09:13:50;;;;;;;;;;;17.60;72.80;;;;;;5011236;28;20048;-93
2021/06/07 09:16:21;;;;;;;6.93;5.85;;;17.70;73.10;;;;;;5007698;28;20023;-90
2021/06/07 09:18:48;;;;;;;9.93;6.63;;;17.80;72.60;;;;;;5040107;28;20059;-96
2021/06/07 09:21:31;;;;;;;9.30;5.10;;;18.00;72.30;;;;;;5023854;28;20068;-93
2021/06/07 09:24:06;;;;;;;5.95;5.15;;;18.10;72.50;;;;;;5039634;28;20044;-92
2021/06/07 09:26:39;;;;;;;7.05;5.47;;;18.20;72.50;;;;;;5006860;28;20081;-89
2021/06/07 09:29:07;;;;;;;5.97;4.70;;;18.30;72.40;;;;;;5024446;28;20048;-95
2021/06/07 09:31:38;;;;;;;5.78;4.65;;;18.50;72.10;;;;;;5008435;28;20118;-93
2021/06/07 09:34:10;;;;;;;6.28;4.78;;;18.60;71.80;;;;;;5040055;28;20047;-91
2021/06/07 09:36:45;;;;;;;7.63;5.10;;;18.80;71.80;;;;;;5009261;28;20417;-93
2021/06/07 09:39:30;;;;;;;5.55;4.50;;;18.90;71.70;;;;;;5007522;28;20410;-89
2021/06/07 09:42:02;;;;;;;6.43;4.78;;;19.10;72.00;;;;;;5022617;28;20104;-88
2021/06/07 09:44:31;;;;;;;5.85;4.07;;;19.20;71.40;;;;;;5038989;28;20033;-92
2021/06/07 09:47:17;;;;;;;4.95;4.47;;;19.40;71.40;;;;;;5037812;28;20064;-94
2021/06/07 09:49:52;;;;;;;4.93;4.03;;;19.60;71.00;;;;;;5038922;28;20051;-89
2021/06/07 09:52:55;;;;;;;;;;;;;;;;;;;;;
2021/06/07 09:55:32;;;;;;;10.13;5.07;;;19.90;70.60;;;;;;5053523;28;20532;-82
2021/06/07 09:58:10;;;;;;;6.00;4.53;;;20.10;69.80;;;;;;5033567;28;20124;-83
2021/06/07 10:00:56;;;;;;;5.70;4.40;;;20.20;68.10;;;;;;5034904;28;20132;-81
2021/06/07 10:03:31;;;;;;;6.05;4.55;;;20.30;67.70;;;;;;5019059;28;20048;-82
2021/06/07 10:06:23;;;;;;;4.90;3.50;;;20.40;66.70;;;;;;5016883;28;20048;-85
2021/06/07 10:09:00;;;;;;;4.70;3.88;;;20.50;64.50;;;;;;5034623;28;20041;-87
2021/06/07 10:12:03;;;;;;;4.28;3.53;;;20.60;64.90;;;;;;5035424;28;20049;-81
2021/06/07 10:14:28;;;;;;;7.03;4.30;;;20.70;64.90;;;;;;5037106;28;20048;-85
2021/06/07 10:17:03;;;;;;;5.88;3.95;;;20.80;64.50;;;;;;5033597;28;20045;-84
2021/06/07 10:20:46;;;;;;;5.25;3.65;;;20.90;63.10;;;;;;5019355;28;20105;-90
2021/06/07 10:22:41;;;;;;;5.97;3.45;;;21.00;62.60;;;;;;5022637;28;20072;-88
2021/06/07 10:25:14;;;;;;;5.07;3.38;;;21.20;62.10;;;;;;5036221;28;20128;-90
2021/06/07 10:27:40;;;;;;;4.90;3.45;;;21.30;62.50;;;;;;5019480;28;20410;-90
2021/06/07 10:30:19;;;;;;;7.22;4.15;;;21.40;62.10;;;;;;5020852;28;20059;-88
2021/06/07 10:32:50;;;;;;;4.13;3.45;;;21.60;61.50;;;;;;5018565;28;20116;-87
2021/06/07 10:35:42;;;;;;;4.85;4.05;;;21.70;60.80;;;;;;5034818;28;20069;-85
2021/06/07 10:38:09;;;;;;;5.45;4.13;;;21.80;59.60;;;;;;5051534;28;20045;-86
2021/06/07 10:40:40;;;;;;;7.05;3.72;;;21.90;59.60;;;;;;5018502;28;20142;-88
2021/06/07 10:43:07;;;;;;;5.57;3.72;;;22.10;59.80;;;;;;5027478;28;20034;-81
2021/06/07 10:45:36;;;;;;;4.63;3.33;;;22.20;59.20;;;;;;4996925;28;20375;-80
2021/06/07 10:48:13;;;;;;;4.32;3.20;;;22.40;58.50;;;;;;5029030;28;20060;-82
2021/06/07 10:50:45;;;;;;;5.00;3.53;;;22.60;59.10;;;;;;5001234;28;20514;-80
2021/06/07 10:53:27;;;;;;;3.50;2.45;;;22.70;58.40;;;;;;5010844;28;20114;-81
2021/06/07 10:56:04;;;;;;;4.97;3.10;;;22.90;57.10;;;;;;5031087;28;20103;-82
2021/06/07 10:58:30;;;;;;;3.85;2.80;;;23.00;56.60;;;;;;5027775;28;20045;-80
2021/06/07 11:01:01;;;;;;;5.65;3.20;;;23.20;56.60;;;;;;4985288;28;20258;-80
2021/06/07 11:03:29;;;;;;;3.03;2.15;;;23.40;55.50;;;;;;5003967;28;20041;-81
2021/06/07 11:05:59;;;;;;;5.45;2.63;;;23.60;54.40;;;;;;5016657;28;20041;-83
2021/06/07 11:08:29;;;;;;;6.32;2.95;;;23.70;54.40;;;;;;5017338;28;20041;-79
2021/06/07 11:11:16;;;;;;;4.45;3.05;;;23.90;54.30;;;;;;4984223;28;20136;-83
2021/06/07 11:13:48;;;;;;;5.13;3.13;;;24.10;53.40;;;;;;5036380;28;20049;-79
2021/06/07 11:16:42;;;;;;;5.93;2.97;;;24.20;52.60;;;;;;5017415;28;20049;-81
2021/06/07 11:19:14;;;;;;;5.35;2.55;;;24.30;52.20;;;;;;5001236;28;20037;-81
2021/06/07 11:22:02;;;;;;;5.63;2.38;;;24.40;51.50;;;;;;5002263;28;20037;-81
2021/06/07 11:24:38;;;;;;;4.60;2.45;;;24.60;50.40;;;;;;5023060;28;20060;-80
2021/06/07 11:27:05;;;;;;;4.03;2.95;;;24.70;49.80;;;;;;5017636;28;20366;-86
2021/06/07 11:29:36;;;;;;;3.78;2.05;;;24.90;49.90;;;;;;5018675;28;20449;-89
2021/06/07 11:32:11;;;;;;;2.50;1.98;;;25.10;49.40;;;;;;4989682;28;20052;-88
2021/06/07 11:34:50;;;;;;;4.38;2.40;;;25.30;48.70;;;;;;4984711;28;20053;-86
2021/06/07 11:37:31;;;;;;;4.90;2.30;;;25.40;48.30;;;;;;4986076;28;20096;-86
2021/06/07 11:39:58;;;;;;;4.60;2.65;;;25.60;48.90;;;;;;4986943;28;20114;-88
2021/06/07 11:42:28;;;;;;;4.18;3.22;;;25.70;48.80;;;;;;5017995;28;20042;-87
2021/06/07 11:44:56;;;;;;;4.90;2.60;;;25.80;47.10;;;;;;5001137;28;20077;-82
2021/06/07 11:47:32;;;;;;;5.05;2.58;;;25.90;46.90;;;;;;4984256;28;20117;-80
2021/06/07 11:49:58;;;;;;;7.15;2.33;;;26.10;47.10;;;;;;5016981;28;20049;-84
2021/06/07 11:52:33;;;;;;;3.33;2.30;;;26.20;47.10;;;;;;5016398;28;20041;-82
2021/06/07 11:54:59;;;;;;;4.00;2.85;;;26.30;46.30;;;;;;5015712;28;20410;-85
2021/06/07 11:57:25;;;;;;;4.45;2.65;;;26.50;46.10;;;;;;5000191;28;20041;-82
2021/06/07 11:59:55;;;;;;;5.60;2.85;;;26.50;45.20;;;;;;4984431;28;20069;-84
2021/06/07 12:02:21;;;;;;;3.50;2.20;;;26.50;45.20;;;;;;4983051;28;20060;-82
2021/06/07 12:04:50;;;;;;;3.80;2.33;;;26.60;44.80;;;;;;4984348;28;20057;-83
2021/06/07 12:07:16;;;;;;;3.83;2.22;;;26.70;44.60;;;;;;5014986;28;20462;-83
2021/06/07 12:09:47;;;;;;;5.28;2.15;;;26.80;43.90;;;;;;4983875;28;20065;-84
2021/06/07 12:12:13;;;;;;;4.00;2.00;;;26.90;43.30;;;;;;4984151;28;20045;-85
2021/06/07 12:14:42;;;;;;;2.65;2.15;;;27.00;43.20;;;;;;5000358;28;20037;-84
2021/06/07 12:17:18;;;;;;;2.75;1.90;;;27.10;42.10;;;;;;4987699;28;20092;-84
2021/06/07 12:19:52;;;;;;;3.25;2.15;;;27.10;42.10;;;;;;4987999;28;20087;-84
2021/06/07 12:22:34;;;;;;;4.10;2.05;;;27.20;41.00;;;;;;4998718;28;20073;-83
2021/06/07 12:28:18;;;;;;;4.63;2.78;;;27.30;40.90;;;;;;5005388;28;20133;-82
2021/06/07 12:30:47;;;;;;;4.30;2.17;;;27.40;41.30;;;;;;5050013;28;20481;-87
2021/06/07 12:33:13;;;;;;;2.40;1.75;;;27.50;41.10;;;;;;5024359;28;20045;-82
2021/06/07 12:35:39;;;;;;;2.78;2.13;;;27.60;40.70;;;;;;5005268;28;20379;-85
2021/06/07 12:38:09;;;;;;;4.10;2.40;;;27.70;41.00;;;;;;5007986;28;20045;-86
2021/06/07 12:40:41;;;;;;;3.63;2.65;;;27.70;40.00;;;;;;5011130;28;20045;-88
2021/06/07 12:43:12;;;;;;;5.90;2.58;;;27.70;39.50;;;;;;5044222;28;20478;-89
2021/06/07 12:45:51;;;;;;;3.58;1.90;;;27.70;40.00;;;;;;5033267;28;20038;-84
2021/06/07 12:48:21;;;;;;;3.95;2.53;;;27.80;39.70;;;;;;5005673;28;20061;-83
2021/06/07 12:50:54;;;;;;;5.28;2.80;;;27.80;39.80;;;;;;5037896;28;20096;-83
2021/06/07 12:53:35;;;;;;;2.53;1.88;;;27.80;39.60;;;;;;5003921;28;20394;-83
2021/06/07 12:56:11;;;;;;;3.35;1.80;;;27.80;40.00;;;;;;5004683;28;20045;-85
2021/06/07 12:58:53;;;;;;;4.57;2.58;;;27.90;40.30;;;;;;5022224;28;20072;-85
2021/06/07 13:01:38;;;;;;;4.07;2.35;;;28.00;39.50;;;;;;5004201;28;20037;-83
2021/06/07 13:04:14;;;;;;;;;;;;;;;;;;;;;
2021/06/07 13:06:49;;;;;;;4.05;1.88;;;27.90;39.00;;;;;;5022552;28;20120;-84
2021/06/07 13:09:15;;;;;;;1.90;1.65;;;28.00;38.60;;;;;;5004253;28;20045;-82
2021/06/07 13:11:47;;;;;;;3.83;2.25;;;28.00;38.30;;;;;;5005000;28;20492;-84